createdAt,value
2019-04-11T00:00:28.734Z,98729.68
2019-04-11T00:03:35.576Z,98735.16
2019-04-11T00:06:41.481Z,98737.76
2019-04-11T00:09:47.965Z,98744.00
2019-04-11T00:12:54.886Z,98741.48
2019-04-11T00:16:01.309Z,98738.42
2019-04-11T00:19:09.326Z,98741.40
2019-04-11T00:22:15.254Z,98741.40
2019-04-11T00:25:21.082Z,98738.98
2019-04-11T00:28:27.770Z,98730.28
2019-04-11T00:31:34.771Z,98732.58
2019-04-11T00:34:40.649Z,98737.55
2019-04-11T00:37:47.405Z,98737.55
2019-04-11T00:40:54.798Z,98740.61
2019-04-11T00:44:00.839Z,98739.39
2019-04-11T00:47:06.960Z,98739.39
2019-04-11T00:50:12.876Z,98739.23
2019-04-11T00:53:19.075Z,98738.80
2019-04-11T00:56:26.265Z,98732.08
2019-04-11T00:59:32.208Z,98731.22
2019-04-11T01:02:38.186Z,98733.10
2019-04-11T01:05:43.897Z,98735.47
2019-04-11T01:08:49.625Z,98739.58
2019-04-11T01:11:56.324Z,98736.03
2019-04-11T01:15:03.169Z,98734.34
2019-04-11T01:18:09.751Z,98739.35
2019-04-11T01:21:17.844Z,98738.16
2019-04-11T01:24:23.914Z,98739.38
2019-04-11T01:27:30.401Z,98739.59
2019-04-11T01:30:53.346Z,98739.02
2019-04-11T01:34:00.120Z,98738.16
2019-04-11T01:37:07.145Z,98732.42
2019-04-11T01:40:13.779Z,98733.12
2019-04-11T01:43:19.873Z,98737.12
2019-04-11T01:46:26.421Z,98733.51
2019-04-11T01:49:32.409Z,98735.71
2019-04-11T01:52:39.347Z,98732.45
2019-04-11T01:55:45.127Z,98732.08
2019-04-11T01:58:51.000Z,98730.91
2019-04-11T02:02:14.724Z,98731.16
2019-04-11T02:05:25.213Z,98724.06
2019-04-11T02:08:31.287Z,98725.94
2019-04-11T02:11:37.316Z,98721.28
2019-04-11T02:14:43.909Z,98719.11
2019-04-11T02:17:50.822Z,98714.31
2019-04-11T02:20:57.605Z,98709.06
2019-04-11T02:24:15.304Z,98711.73
2019-04-11T02:27:24.773Z,98709.12
2019-04-11T02:30:33.908Z,98709.34
2019-04-11T02:33:41.410Z,98710.52
2019-04-11T02:36:49.062Z,98710.65
2019-04-11T02:39:55.966Z,98713.95
2019-04-11T02:43:02.476Z,98719.68
2019-04-11T02:46:17.567Z,98723.61
2019-04-11T02:49:16.996Z,98719.89
2019-04-11T02:52:23.025Z,98726.97
2019-04-11T02:55:29.487Z,98723.95
2019-04-11T02:58:36.891Z,98731.97
2019-04-11T03:01:44.022Z,98732.30
2019-04-11T03:04:51.015Z,98734.59
2019-04-11T03:07:58.416Z,98735.98
2019-04-11T03:11:05.393Z,98731.84
2019-04-11T03:14:12.569Z,98733.12
2019-04-11T03:17:22.967Z,98732.10
2019-04-11T03:20:34.935Z,98730.98
2019-04-11T03:23:35.600Z,98732.66
2019-04-11T03:26:43.482Z,98731.30
2019-04-11T03:29:51.623Z,98740.85
2019-04-11T03:33:55.141Z,98746.47
2019-04-11T03:37:00.076Z,98742.86
2019-04-11T03:39:32.742Z,98748.72
2019-04-11T03:42:41.742Z,98746.45
2019-04-11T03:45:48.992Z,98756.66
2019-04-11T03:48:51.140Z,98764.13
2019-04-11T03:51:47.694Z,98760.97
2019-04-11T03:54:53.928Z,98763.91
2019-04-11T03:58:01.207Z,98766.75
2019-04-11T04:01:10.578Z,98763.71
2019-04-11T04:04:15.474Z,98765.23
2019-04-11T04:07:27.715Z,98768.02
2019-04-11T04:10:36.146Z,98767.89
2019-04-11T04:13:47.806Z,98760.56
2019-04-11T04:17:28.332Z,98769.16
2019-04-11T04:20:59.689Z,98771.53
2019-04-11T04:24:27.754Z,98779.56
2019-04-11T04:27:34.810Z,98785.02
2019-04-11T04:30:42.783Z,98779.97
2019-04-11T04:33:48.303Z,98774.43
2019-04-11T04:36:55.674Z,98773.45
2019-04-11T04:40:21.161Z,98771.58
2019-04-11T04:43:10.506Z,98777.23
2019-04-11T04:46:30.083Z,98781.19
2019-04-11T04:49:24.162Z,98780.48
2019-04-11T04:52:31.906Z,98784.53
2019-04-11T04:55:37.667Z,98784.31
2019-04-11T04:58:44.427Z,98790.41
2019-04-11T05:01:53.288Z,98786.95
2019-04-11T05:05:01.371Z,98776.81
2019-04-11T05:08:08.409Z,98781.86
2019-04-11T05:11:15.875Z,98784.56
2019-04-11T05:14:23.177Z,98783.53
2019-04-11T05:17:29.130Z,98783.78
2019-04-11T05:20:34.898Z,98782.06
2019-04-11T05:23:41.660Z,98781.77
2019-04-11T05:26:48.128Z,98783.48
2019-04-11T05:29:54.037Z,98784.80
2019-04-11T05:32:59.834Z,98779.81
2019-04-11T05:36:05.989Z,98783.80
2019-04-11T05:39:13.089Z,98782.11
2019-04-11T05:42:20.003Z,98776.52
2019-04-11T05:45:26.713Z,98778.59
2019-04-11T05:48:51.313Z,98778.67
2019-04-11T05:52:06.140Z,98777.52
2019-04-11T05:55:13.700Z,98783.92
2019-04-11T05:58:19.694Z,98781.09
2019-04-11T06:01:30.737Z,98778.80
2019-04-11T06:04:41.012Z,98776.72
2019-04-11T06:07:57.564Z,98773.98
2019-04-11T06:11:24.218Z,98776.94
2019-04-11T06:14:43.745Z,98763.30
2019-04-11T06:17:50.303Z,98763.30
2019-04-11T06:20:59.750Z,98771.91
2019-04-11T06:24:24.458Z,98771.91
2019-04-11T06:27:49.769Z,98774.23
2019-04-11T06:31:24.829Z,98771.89
2019-04-11T06:34:32.006Z,98777.59
2019-04-11T06:38:11.888Z,98778.78
2019-04-11T06:41:32.967Z,98781.66
2019-04-11T06:44:50.593Z,98784.77
2019-04-11T06:48:23.141Z,98787.60
2019-04-11T06:51:39.857Z,98791.77
2019-04-11T06:55:08.704Z,98791.06
2019-04-11T06:58:25.513Z,98782.41
2019-04-11T07:01:32.214Z,98786.39
2019-04-11T07:05:04.435Z,98784.44
2019-04-11T07:08:10.617Z,98790.77
2019-04-11T07:11:17.798Z,98785.80
2019-04-11T07:14:37.674Z,98793.41
2019-04-11T07:18:01.147Z,98793.03
2019-04-11T07:21:11.881Z,98799.27
2019-04-11T07:24:45.357Z,98793.14
2019-04-11T07:28:11.006Z,98803.47
2019-04-11T07:31:41.309Z,98803.55
2019-04-11T07:35:05.908Z,98799.48
2019-04-11T07:38:16.256Z,98792.97
2019-04-11T07:41:52.143Z,98800.31
2019-04-11T07:45:00.956Z,98797.81
2019-04-11T07:48:23.189Z,98801.40
2019-04-11T07:51:30.378Z,98789.42
2019-04-11T07:54:36.933Z,98786.55
2019-04-11T07:57:48.987Z,98786.84
2019-04-11T08:01:16.868Z,98782.58
2019-04-11T08:04:57.660Z,98782.94
2019-04-11T08:08:21.411Z,98777.77
2019-04-11T08:11:31.776Z,98776.70
2019-04-11T08:14:55.096Z,98771.34
2019-04-11T08:18:04.336Z,98780.03
2019-04-11T08:21:37.313Z,98780.89
2019-04-11T08:32:55.625Z,98770.77
2019-04-11T08:36:15.697Z,98766.27
2019-04-11T08:39:29.092Z,98764.47
2019-04-11T08:42:53.427Z,98761.05
2019-04-11T08:46:16.806Z,98765.11
2019-04-11T08:49:35.082Z,98757.02
2019-04-11T08:53:02.831Z,98759.42
2019-04-11T08:56:21.087Z,98762.06
2019-04-11T09:00:02.168Z,98752.27
2019-04-11T09:03:23.882Z,98755.88
2019-04-11T09:06:35.379Z,98749.14
2019-04-11T09:09:59.769Z,98753.81
2019-04-11T09:13:44.004Z,98751.33
2019-04-11T09:16:58.965Z,98747.47
2019-04-11T09:20:27.640Z,98750.41
2019-04-11T09:23:33.666Z,98738.93
2019-04-11T09:26:58.252Z,98740.33
2019-04-11T09:30:11.437Z,98750.20
2019-04-11T09:33:33.112Z,98746.05
2019-04-11T09:36:47.281Z,98748.16
2019-04-11T09:40:12.764Z,98747.52
2019-04-11T09:43:22.034Z,98748.11
2019-04-11T09:46:40.766Z,98749.78
2019-04-11T09:49:51.652Z,98752.67
2019-04-11T09:52:58.048Z,98748.55
2019-04-11T09:56:21.214Z,98733.82
2019-04-11T09:59:49.727Z,98739.05
2019-04-11T10:03:02.474Z,98741.09
2019-04-11T10:06:25.072Z,98740.02
2019-04-11T10:10:08.654Z,98741.66
2019-04-11T10:13:42.819Z,98734.16
2019-04-11T10:17:06.722Z,98742.98
2019-04-11T10:20:16.111Z,98741.34
2019-04-11T10:23:29.226Z,98741.65
2019-04-11T10:26:40.258Z,98743.75
2019-04-11T10:30:04.634Z,98735.24
2019-04-11T10:33:18.550Z,98736.48
2019-04-11T10:36:29.590Z,98736.13
2019-04-11T10:39:59.869Z,98732.81
2019-04-11T10:43:06.002Z,98733.64
2019-04-11T10:46:47.007Z,98738.58
2019-04-11T10:50:21.757Z,98726.09
2019-04-11T10:53:27.934Z,98740.89
2019-04-11T10:56:51.872Z,98746.82
2019-04-11T10:59:58.647Z,98735.09
2019-04-11T11:03:22.233Z,98748.82
2019-04-11T11:06:29.612Z,98749.66
2019-04-11T11:09:56.769Z,98741.54
2019-04-11T11:13:21.556Z,98744.41
2019-04-11T11:16:34.042Z,98753.21
2019-04-11T11:20:11.895Z,98743.55
2019-04-11T11:23:25.091Z,98745.16
2019-04-11T11:26:35.651Z,98738.87
2019-04-11T11:30:12.757Z,98745.91
2019-04-11T11:33:20.464Z,98745.97
2019-04-11T11:36:54.984Z,98747.02
2019-04-11T11:40:20.345Z,98747.36
2019-04-11T11:43:36.685Z,98753.68
2019-04-11T11:47:03.384Z,98757.91
2019-04-11T11:50:14.669Z,98761.27
2019-04-11T11:53:27.322Z,98756.58
2019-04-11T11:56:34.136Z,98764.63
2019-04-11T11:59:45.705Z,98760.83
2019-04-11T12:03:11.408Z,98766.33
2019-04-11T12:06:22.231Z,98764.20
2019-04-11T12:09:53.005Z,98768.77
2019-04-11T12:13:30.418Z,98769.00
2019-04-11T12:17:01.183Z,98775.97
2019-04-11T12:20:16.006Z,98772.53
2019-04-11T12:23:48.549Z,98767.89
2019-04-11T12:27:13.180Z,98768.45
2019-04-11T12:30:31.339Z,98768.96
2019-04-11T12:33:49.943Z,98768.92
2019-04-11T12:36:56.410Z,98769.05
2019-04-11T12:40:42.201Z,98766.84
2019-04-11T12:44:15.611Z,98771.63
2019-04-11T12:47:26.853Z,98770.75
2019-04-11T12:50:58.615Z,98764.28
2019-04-11T12:54:04.839Z,98771.26
2019-04-11T12:57:28.187Z,98769.94
2019-04-11T13:00:55.828Z,98767.80
2019-04-11T13:04:19.279Z,98764.50
2019-04-11T13:07:51.368Z,98770.24
2019-04-11T13:10:57.003Z,98769.34
2019-04-11T13:14:13.004Z,98770.59
2019-04-11T13:17:22.767Z,98769.03
2019-04-11T13:21:02.776Z,98763.73
2019-04-11T13:24:27.761Z,98766.88
2019-04-11T13:27:37.787Z,98772.11
2019-04-11T13:31:23.613Z,98768.66
2019-04-11T13:34:28.369Z,98772.69
2019-04-11T13:37:51.447Z,98770.92
2019-04-11T13:41:15.923Z,98775.64
2019-04-11T13:44:40.571Z,98771.23
2019-04-11T13:48:04.189Z,98775.71
2019-04-11T13:51:15.607Z,98781.17
2019-04-11T13:54:39.008Z,98782.05
2019-04-11T13:58:06.445Z,98783.61
2019-04-11T14:01:16.531Z,98780.36
2019-04-11T14:05:16.348Z,98782.22
2019-04-11T14:09:08.816Z,98776.34
2019-04-11T14:15:29.567Z,98778.08
2019-04-11T14:18:47.668Z,98780.47
2019-04-11T14:21:53.289Z,98777.30
2019-04-11T14:25:16.332Z,98781.12
2019-04-11T14:28:22.343Z,98779.65
2019-04-11T14:32:02.505Z,98777.80
2019-04-11T14:35:36.232Z,98781.49
2019-04-11T14:38:47.971Z,98777.67
2019-04-11T14:42:11.785Z,98779.03
2019-04-11T14:45:36.588Z,98768.78
2019-04-11T14:48:44.557Z,98776.13
2019-04-11T14:52:07.967Z,98767.73
2019-04-11T14:55:13.690Z,98767.43
2019-04-11T14:58:39.816Z,98769.37
2019-04-11T15:01:47.777Z,98764.64
2019-04-11T15:05:15.249Z,98758.23
2019-04-11T15:08:30.887Z,98764.17
2019-04-11T15:11:54.117Z,98761.39
2019-04-11T15:15:24.906Z,98753.77
2019-04-11T15:18:32.553Z,98763.25
2019-04-11T15:21:57.523Z,98754.62
2019-04-11T15:25:10.318Z,98753.16
2019-04-11T15:28:53.056Z,98749.92
2019-04-11T15:32:15.928Z,98749.55
2019-04-11T15:35:21.719Z,98750.05
2019-04-11T15:38:52.569Z,98745.83
2019-04-11T15:42:02.370Z,98748.22
2019-04-11T15:45:29.488Z,98745.33
2019-04-11T15:49:03.330Z,98746.41
2019-04-11T15:52:15.505Z,98750.95
2019-04-11T15:55:53.343Z,98745.27
2019-04-11T15:59:05.644Z,98747.30
2019-04-11T16:02:36.290Z,98747.94
2019-04-11T16:06:01.585Z,98750.79
2019-04-11T16:09:12.662Z,98751.17
2019-04-11T16:12:26.700Z,98751.45
2019-04-11T16:15:34.823Z,98747.94
2019-04-11T16:18:58.191Z,98750.77
2019-04-11T16:22:24.866Z,98757.50
2019-04-11T16:25:30.399Z,98754.22
2019-04-11T16:28:53.590Z,98770.43
2019-04-11T16:32:02.079Z,98768.14
2019-04-11T16:35:14.954Z,98774.19
2019-04-11T16:38:21.877Z,98769.84
2019-04-11T16:41:45.455Z,98776.83
2019-04-11T16:45:13.241Z,98773.37
2019-04-11T16:48:18.851Z,98781.92
2019-04-11T16:51:30.769Z,98775.47
2019-04-11T16:54:31.869Z,98779.90
2019-04-11T16:57:37.480Z,98777.14
2019-04-11T17:00:43.564Z,98781.73
2019-04-11T17:03:55.182Z,98781.80
2019-04-11T17:07:15.000Z,98779.94
2019-04-11T17:10:42.719Z,98782.08
2019-04-11T17:13:48.350Z,98775.67
2019-04-11T17:16:54.454Z,98771.41
2019-04-11T17:20:00.116Z,98775.29
2019-04-11T17:23:05.901Z,98785.41
2019-04-11T17:26:11.633Z,98786.73
2019-04-11T17:29:17.250Z,98789.48
2019-04-11T17:32:23.634Z,98793.21
2019-04-11T17:35:31.698Z,98795.38
2019-04-11T17:38:37.827Z,98811.70
2019-04-11T17:41:43.520Z,98815.16
2019-04-11T17:44:49.124Z,98823.81
2019-04-11T17:47:57.110Z,98830.39
2019-04-11T17:51:04.832Z,98827.48
2019-04-11T17:54:09.386Z,98835.39
2019-04-11T17:57:14.982Z,98842.69
2019-04-11T18:00:30.080Z,98854.11
2019-04-11T18:03:34.798Z,98861.92
2019-04-11T18:06:40.411Z,98871.66
2019-04-11T18:09:46.254Z,98870.15
2019-04-11T18:12:55.747Z,98880.46
2019-04-11T18:16:01.926Z,98882.83
2019-04-11T18:19:09.790Z,98881.23
2019-04-11T18:22:14.936Z,98884.48
2019-04-11T18:25:21.475Z,98891.80
2019-04-11T18:28:27.303Z,98891.73
2019-04-11T18:31:33.086Z,98891.23
2019-04-11T18:34:43.987Z,98895.70
2019-04-11T18:37:49.621Z,98898.47
2019-04-11T18:40:55.495Z,98899.52
2019-04-11T18:44:01.175Z,98903.28
2019-04-11T18:47:06.947Z,98902.66
2019-04-11T18:50:12.790Z,98910.06
2019-04-11T18:53:19.185Z,98910.02
2019-04-11T18:56:25.094Z,98905.63
2019-04-11T18:59:33.744Z,98903.09
2019-04-11T19:02:40.212Z,98907.05
2019-04-11T19:05:45.589Z,98908.27
2019-04-11T19:08:51.177Z,98902.58
2019-04-11T19:11:56.884Z,98910.36
2019-04-11T19:15:02.515Z,98915.34
2019-04-11T19:18:09.247Z,98913.33
2019-04-11T19:21:14.872Z,98913.94
2019-04-11T19:24:20.569Z,98914.47
2019-04-11T19:27:26.539Z,98922.75
2019-04-11T19:30:32.279Z,98924.55
2019-04-11T19:33:39.982Z,98928.98
2019-04-11T19:36:47.012Z,98932.80
2019-04-11T19:39:52.814Z,98926.94
2019-04-11T19:42:58.803Z,98932.55
2019-04-11T19:46:04.741Z,98927.92
2019-04-11T19:49:10.538Z,98926.12
2019-04-11T19:52:16.293Z,98930.52
2019-04-11T19:55:52.246Z,98929.94
2019-04-11T19:58:59.821Z,98940.34
2019-04-11T20:02:05.888Z,98931.01
2019-04-11T20:05:15.136Z,98931.86
2019-04-11T20:08:21.985Z,98930.30
2019-04-11T20:11:29.418Z,98924.58
2019-04-11T20:14:35.461Z,98927.31
2019-04-11T20:17:44.592Z,98921.42
2019-04-11T20:20:48.546Z,98918.06
2019-04-11T20:23:54.274Z,98921.45
2019-04-11T20:27:00.018Z,98925.30
2019-04-11T20:30:06.056Z,98930.80
2019-04-11T20:33:12.457Z,98936.02
2019-04-11T20:36:18.172Z,98938.59
2019-04-11T20:39:23.896Z,98940.18
2019-04-11T20:42:29.727Z,98936.37
2019-04-11T20:45:37.291Z,98942.53
2019-04-11T20:48:43.513Z,98942.95
2019-04-11T20:51:49.170Z,98945.99
2019-04-11T20:54:54.895Z,98953.27
2019-04-11T20:58:00.582Z,98953.27
2019-04-11T21:01:06.432Z,98943.38
2019-04-11T21:04:12.180Z,98950.75
2019-04-11T21:07:17.934Z,98950.75
2019-04-11T21:10:25.163Z,98947.85
2019-04-11T21:13:30.871Z,98951.06
2019-04-11T21:16:36.640Z,98951.06
2019-04-11T21:19:42.410Z,98961.44
2019-04-11T21:22:48.131Z,98972.83
2019-04-11T21:25:53.814Z,98989.19
2019-04-11T21:28:59.553Z,98991.59
2019-04-11T21:32:05.263Z,98994.17
2019-04-11T21:35:11.237Z,98999.55
2019-04-11T21:38:16.976Z,98994.75
2019-04-11T21:41:22.697Z,98989.89
2019-04-11T21:44:28.382Z,98988.55
2019-04-11T21:47:36.886Z,98984.89
2019-04-11T21:50:41.590Z,98988.75
2019-04-11T21:53:47.301Z,98991.30
2019-04-11T21:56:53.013Z,98998.33
2019-04-11T22:00:01.396Z,99000.84
2019-04-11T22:03:08.246Z,98997.48
2019-04-11T22:06:15.110Z,98997.67
2019-04-11T22:09:20.863Z,98994.23
2019-04-11T22:12:26.649Z,98988.72
2019-04-11T22:15:32.430Z,98989.86
2019-04-11T22:18:38.109Z,98981.47
2019-04-11T22:21:45.439Z,98978.52
2019-04-11T22:24:51.283Z,98982.73
2019-04-11T22:27:57.002Z,98978.58
2019-04-11T22:31:02.828Z,98985.18
2019-04-11T22:34:13.822Z,98981.14
2019-04-11T22:37:19.601Z,98973.05
2019-04-11T22:40:25.291Z,98961.28
2019-04-11T22:43:31.048Z,98960.66
2019-04-11T22:46:37.809Z,98968.88
2019-04-11T22:49:44.032Z,98978.39
2019-04-11T22:52:49.740Z,99002.42
2019-04-11T22:55:55.414Z,99002.55
2019-04-11T22:59:01.134Z,99002.72
2019-04-11T23:02:23.857Z,99004.47
2019-04-11T23:05:29.663Z,99002.06
2019-04-11T23:08:35.344Z,99010.87
2019-04-11T23:11:44.492Z,99007.88
2019-04-11T23:14:49.506Z,99011.57
2019-04-11T23:17:55.244Z,99002.94
2019-04-11T23:21:00.915Z,99003.86
2019-04-11T23:24:11.725Z,98988.77
2019-04-11T23:27:14.119Z,98984.05
2019-04-11T23:30:19.812Z,98983.95
2019-04-11T23:33:25.544Z,98989.21
2019-04-11T23:36:31.218Z,98989.17
2019-04-11T23:39:36.951Z,98992.55
2019-04-11T23:42:42.682Z,98982.66
2019-04-11T23:45:50.899Z,98985.20
2019-04-11T23:48:55.860Z,98986.55
2019-04-11T23:52:01.594Z,98976.62
2019-04-11T23:55:07.825Z,98979.31
2019-04-11T23:58:13.521Z,98982.33
